Time;durP1;ratioP1;P1;durP2;ratioP2;P2;SDS_P1;SDS_P2;PMS_P1;PMS_P2;Temp;Humidity;BMP_temperature;BMP_pressure;BME280_temperature;BME280_humidity;BME280_pressure;Samples;Min_cycle;Max_cycle;Signal;HPM_P1;HPM_P2
2022/01/11 00:00:57;;;;;;;4.30;3.00;;;;;;;0.83;100.00;100035.72;4898784;29;20029;-71
2022/01/11 00:03:22;;;;;;;2.67;2.50;;;;;;;0.98;100.00;100035.47;4898950;29;20025;-71
2022/01/11 00:08:18;;;;;;;9.05;3.03;;;;;;;0.93;100.00;100036.97;4898652;29;20430;-71
2022/01/11 00:10:51;;;;;;;2.45;1.95;;;;;;;0.89;100.00;100035.09;4898736;29;20028;-71
2022/01/11 00:13:18;;;;;;;8.32;4.18;;;;;;;0.99;100.00;100037.22;4898534;29;20032;-71
2022/01/11 00:15:44;;;;;;;5.65;3.58;;;;;;;0.95;100.00;100031.09;4898373;29;20063;-71
2022/01/11 00:18:09;;;;;;;1.67;1.58;;;;;;;0.86;100.00;100034.97;4898534;29;20538;-71
2022/01/11 00:20:37;;;;;;;2.35;2.20;;;;;;;0.97;100.00;100034.59;4898582;29;20032;-71
2022/01/11 00:25:34;;;;;;;2.58;2.47;;;;;;;0.81;100.00;100028.78;4898412;29;20028;-71
2022/01/11 00:28:00;;;;;;;4.68;2.05;;;;;;;0.92;100.00;100040.31;4898126;29;20032;-71
2022/01/11 00:30:32;;;;;;;6.28;3.33;;;;;;;0.84;100.00;100036.59;4898134;29;20450;-71
2022/01/11 00:33:01;;;;;;;1.92;1.83;;;;;;;0.82;100.00;100027.97;4898316;29;20032;-71
2022/01/11 00:35:39;;;;;;;2.15;2.05;;;;;;;0.82;100.00;100038.19;4898257;29;20402;-71
2022/01/11 00:38:06;;;;;;;3.08;2.03;;;;;;;0.82;100.00;100041.59;4897601;29;20161;-71
2022/01/11 00:40:31;;;;;;;2.92;2.63;;;;;;;0.83;100.00;100034.84;4898032;29;20024;-71
2022/01/11 00:42:59;;;;;;;3.65;1.48;;;;;;;0.90;100.00;100041.94;4897543;29;20024;-71
2022/01/11 00:45:26;;;;;;;2.38;2.15;;;;;;;0.99;100.00;100042.31;4898113;29;20037;-71
2022/01/11 00:47:52;;;;;;;4.20;2.80;;;;;;;1.24;100.00;100044.16;4897902;29;20028;-71
2022/01/11 00:50:18;;;;;;;4.63;3.95;;;;;;;1.11;100.00;100042.78;4897925;29;20505;-71
2022/01/11 00:52:43;;;;;;;2.55;2.25;;;;;;;1.18;100.00;100039.69;4897852;29;20121;-71
2022/01/11 00:55:09;;;;;;;3.25;2.95;;;;;;;1.03;100.00;100034.84;4897749;29;20028;-71
2022/01/11 00:57:34;;;;;;;2.45;2.03;;;;;;;1.07;100.00;100040.94;4897684;29;20040;-71
2022/01/11 00:59:59;;;;;;;5.45;3.03;;;;;;;1.04;100.00;100040.81;4897874;29;20059;-71
2022/01/11 05:15:33;;;;;;;2.83;2.63;;;;;;;0.77;100.00;100133.28;5831146;23;20127;-73
2022/01/11 05:17:58;;;;;;;3.70;3.40;;;;;;;0.84;100.00;100128.44;4916421;29;20375;-73
2022/01/11 05:20:23;;;;;;;4.03;3.60;;;;;;;0.97;100.00;100135.81;4916398;29;20024;-73
2022/01/11 05:22:49;;;;;;;2.05;1.85;;;;;;;0.70;100.00;100128.69;4915100;29;20021;-73
2022/01/11 05:25:15;;;;;;;2.42;2.33;;;;;;;0.75;100.00;100134.88;4916373;29;20067;-73
2022/01/11 05:27:42;;;;;;;2.67;2.30;;;;;;;0.82;100.00;100132.56;4931030;29;20028;-72
2022/01/11 05:30:09;;;;;;;3.25;2.97;;;;;;;0.89;100.00;100142.25;4915016;29;20429;-72
2022/01/11 05:32:35;;;;;;;3.20;1.70;;;;;;;0.93;100.00;100144.13;4916078;29;20024;-72
2022/01/11 05:35:06;;;;;;;1.38;1.38;;;;;;;0.91;100.00;100143.16;4898999;29;20081;-72
2022/01/11 05:37:32;;;;;;;1.50;1.40;;;;;;;0.89;100.00;100148.22;4909508;29;20036;-71
2022/01/11 05:39:58;;;;;;;3.83;3.53;;;;;;;0.84;100.00;100151.38;4914472;29;20043;-71
2022/01/11 05:42:24;;;;;;;2.85;2.65;;;;;;;0.76;100.00;100151.91;4916218;29;20405;-73
2022/01/11 05:44:49;;;;;;;3.88;3.38;;;;;;;0.65;100.00;100158.22;4916122;29;20031;-70
2022/01/11 05:47:15;;;;;;;3.25;3.03;;;;;;;0.61;100.00;100151.25;4915788;29;20028;-73
2022/01/11 05:49:41;;;;;;;2.75;2.63;;;;;;;0.64;100.00;100155.63;4916060;29;20039;-70
2022/01/11 05:52:06;;;;;;;4.03;3.55;;;;;;;0.80;100.00;100165.69;4915851;29;20438;-74
2022/01/11 05:54:32;;;;;;;3.22;3.03;;;;;;;0.81;100.00;100169.09;4915994;29;20036;-73
2022/01/11 05:56:57;;;;;;;4.40;2.92;;;;;;;0.79;100.00;100170.72;4915065;29;20202;-74
2022/01/11 05:59:22;;;;;;;4.30;2.15;;;;;;;0.74;100.00;100168.84;4915453;29;20115;-74
2022/01/11 06:01:48;;;;;;;3.20;2.95;;;;;;;0.84;100.00;100179.44;4915865;29;20445;-74
2022/01/11 06:04:13;;;;;;;2.15;2.03;;;;;;;0.77;100.00;100188.50;4915792;29;20080;-73
2022/01/11 06:06:39;;;;;;;3.55;3.25;;;;;;;0.85;100.00;100183.75;4915351;29;20024;-74
2022/01/11 06:09:04;;;;;;;4.13;2.97;;;;;;;0.89;100.00;100188.16;4907723;29;20028;-73
2022/01/11 06:11:30;;;;;;;4.00;3.42;;;;;;;0.88;100.00;100189.84;4915682;29;20110;-73
2022/01/11 06:13:55;;;;;;;2.22;2.08;;;;;;;0.99;100.00;100195.41;4914990;29;20043;-73
2022/01/11 06:16:21;;;;;;;4.70;3.72;;;;;;;0.91;100.00;100196.75;4915492;29;20450;-73
2022/01/11 06:18:48;;;;;;;2.33;2.22;;;;;;;1.01;100.00;100198.88;4915688;29;20028;-74
2022/01/11 06:21:13;;;;;;;4.93;3.67;;;;;;;0.87;100.00;100203.41;4915581;29;20024;-74
2022/01/11 06:23:38;;;;;;;2.90;2.65;;;;;;;0.85;100.00;100197.38;4915727;29;20055;-73
2022/01/11 06:26:04;;;;;;;4.90;3.42;;;;;;;0.92;100.00;100201.03;4915502;29;20115;-73
2022/01/11 06:28:29;;;;;;;3.42;2.78;;;;;;;0.93;100.00;100205.38;4915702;29;20059;-74
2022/01/11 06:30:54;;;;;;;4.18;3.88;;;;;;;0.84;100.00;100205.84;4915641;29;20028;-73
2022/01/11 06:33:20;;;;;;;6.68;2.10;;;;;;;0.89;100.00;100198.38;4915517;29;20034;-73
2022/01/11 06:35:45;;;;;;;2.88;2.33;;;;;;;0.86;100.00;100203.34;4908308;29;20033;-74
2022/01/11 06:38:10;;;;;;;4.93;3.15;;;;;;;0.79;100.00;100211.53;4907665;29;20375;-74
2022/01/11 06:40:36;;;;;;;3.13;2.95;;;;;;;0.80;100.00;100214.16;4917473;29;20103;-74
2022/01/11 06:43:01;;;;;;;4.43;3.20;;;;;;;0.54;100.00;100220.66;4919230;29;20024;-73
2022/01/11 06:45:28;;;;;;;3.92;3.55;;;;;;;0.66;100.00;100220.31;4919040;29;20040;-74
2022/01/11 06:47:53;;;;;;;10.60;4.75;;;;;;;0.76;100.00;100218.22;4918981;29;20498;-74
2022/01/11 06:50:20;;;;;;;2.92;2.75;;;;;;;0.80;100.00;100213.28;4918876;29;20067;-74
2022/01/11 06:52:45;;;;;;;2.78;2.55;;;;;;;0.77;100.00;100222.56;4919071;29;20272;-73
2022/01/11 06:55:11;;;;;;;2.90;2.45;;;;;;;0.77;100.00;100220.00;4918842;29;20191;-74
2022/01/11 06:57:37;;;;;;;13.40;3.85;;;;;;;0.74;100.00;100219.84;4918728;29;20028;-74
2022/01/11 07:00:06;;;;;;;4.32;3.92;;;;;;;0.72;100.00;100229.09;4918849;29;20032;-74
2022/01/11 07:02:31;;;;;;;3.80;2.33;;;;;;;0.87;100.00;100231.50;4918945;29;20024;-73
2022/01/11 07:04:56;;;;;;;5.63;5.13;;;;;;;0.86;100.00;100228.84;4918454;29;20051;-74
2022/01/11 07:07:22;;;;;;;3.53;2.65;;;;;;;0.76;100.00;100231.00;4910460;29;20088;-74
2022/01/11 07:09:47;;;;;;;2.90;2.72;;;;;;;0.78;100.00;100236.19;4902706;29;20028;-74
2022/01/11 07:12:13;;;;;;;2.88;2.67;;;;;;;0.75;100.00;100236.91;4900056;29;20028;-73
2022/01/11 07:14:38;;;;;;;3.22;2.45;;;;;;;0.70;100.00;100238.38;4899736;29;20032;-74
2022/01/11 07:17:03;;;;;;;4.43;3.30;;;;;;;0.60;100.00;100246.41;4899507;29;20041;-73
2022/01/11 07:19:29;;;;;;;2.58;2.35;;;;;;;0.85;100.00;100242.41;4900300;29;20033;-73
2022/01/11 07:21:56;;;;;;;2.92;2.70;;;;;;;0.79;100.00;100245.56;4899535;29;20493;-73
2022/01/11 07:24:23;;;;;;;4.47;3.70;;;;;;;0.76;100.00;100246.28;4899612;29;20028;-73
2022/01/11 07:26:48;;;;;;;3.88;3.55;;;;;;;1.03;100.00;100253.44;4899448;29;20040;-73
2022/01/11 07:29:14;;;;;;;10.38;3.83;;;;;;;0.87;100.00;100251.91;4899537;29;20390;-73
2022/01/11 07:31:41;;;;;;;7.43;1.90;;;;;;;0.81;100.00;100256.69;4899464;29;20025;-73
2022/01/11 07:34:07;;;;;;;4.88;4.47;;;;;;;0.89;100.00;100257.94;4903517;29;20028;-74
2022/01/11 07:36:33;;;;;;;4.78;4.13;;;;;;;0.85;100.00;100261.16;4911691;29;20021;-73
2022/01/11 07:38:58;;;;;;;4.50;3.90;;;;;;;1.08;100.00;100264.72;4907097;29;20033;-74
2022/01/11 07:41:24;;;;;;;3.00;2.85;;;;;;;1.08;100.00;100262.16;4899259;29;20036;-74
2022/01/11 07:43:49;;;;;;;6.63;3.42;;;;;;;1.07;100.00;100270.63;4899723;29;20029;-73
2022/01/11 07:46:14;;;;;;;3.13;2.92;;;;;;;0.98;100.00;100265.13;4899369;29;20454;-73
2022/01/11 07:48:40;;;;;;;7.15;4.57;;;;;;;0.98;100.00;100266.00;4899214;29;20027;-73
2022/01/11 07:51:06;;;;;;;5.65;4.15;;;;;;;0.88;100.00;100268.06;4899457;29;20032;-74
2022/01/11 07:53:31;;;;;;;4.03;3.72;;;;;;;0.90;100.00;100271.56;4898981;29;20032;-73
2022/01/11 07:55:57;;;;;;;3.42;2.83;;;;;;;0.99;100.00;100274.53;4899043;29;20112;-74
2022/01/11 07:58:22;;;;;;;4.88;3.40;;;;;;;0.96;100.00;100276.91;4899008;29;20040;-74
2022/01/11 08:00:48;;;;;;;3.47;2.08;;;;;;;0.94;100.00;100273.44;4898996;29;20390;-74
2022/01/11 08:03:13;;;;;;;2.58;2.45;;;;;;;0.95;100.00;100285.38;4898803;29;20031;-73
2022/01/11 08:05:38;;;;;;;3.50;3.20;;;;;;;1.09;100.00;100284.31;4915101;29;20465;-73
2022/01/11 08:08:04;;;;;;;5.30;4.20;;;;;;;1.23;100.00;100278.16;4921634;29;20028;-73
2022/01/11 08:10:30;;;;;;;5.13;3.95;;;;;;;1.72;100.00;100280.22;4898787;29;20115;-73
2022/01/11 08:12:55;;;;;;;9.52;3.40;;;;;;;1.39;100.00;100278.78;4898674;29;20076;-74
2022/01/11 08:15:21;;;;;;;11.07;7.03;;;;;;;1.22;100.00;100288.31;4898484;29;20060;-73
2022/01/11 08:17:47;;;;;;;4.78;3.00;;;;;;;1.35;100.00;100297.34;4898457;29;20430;-74
2022/01/11 08:20:13;;;;;;;5.15;2.38;;;;;;;1.50;100.00;100287.81;4898484;29;20533;-74
2022/01/11 08:22:39;;;;;;;2.83;2.65;;;;;;;1.55;100.00;100296.53;4898642;29;20372;-74
2022/01/11 08:25:05;;;;;;;4.28;3.97;;;;;;;1.61;100.00;100288.25;4898690;29;20076;-74
2022/01/11 08:27:33;;;;;;;4.40;3.55;;;;;;;1.38;100.00;100302.59;4898132;29;20025;-74
2022/01/11 08:29:58;;;;;;;3.70;3.08;;;;;;;1.24;100.00;100296.88;4898489;29;20036;-74
2022/01/11 08:32:24;;;;;;;6.72;2.67;;;;;;;1.18;100.00;100299.19;4898336;29;20402;-74
2022/01/11 08:34:49;;;;;;;2.78;2.53;;;;;;;1.22;100.00;100301.94;4907992;29;20486;-74
2022/01/11 08:37:14;;;;;;;11.13;2.00;;;;;;;1.16;100.00;100301.66;4912961;29;20055;-74
2022/01/11 08:39:40;;;;;;;6.32;2.50;;;;;;;1.36;100.00;100299.97;4913024;29;20031;-74
2022/01/11 08:42:08;;;;;;;2.78;2.45;;;;;;;1.49;100.00;100301.38;4917239;29;20454;-74
2022/01/11 08:44:34;;;;;;;5.03;4.25;;;;;;;1.46;100.00;100306.34;4917072;29;20032;-74
2022/01/11 08:46:59;;;;;;;2.13;1.98;;;;;;;1.60;100.00;100305.28;4916712;29;20092;-74
2022/01/11 08:49:25;;;;;;;4.00;3.38;;;;;;;1.48;100.00;100300.50;4917134;29;20052;-74
2022/01/11 08:51:50;;;;;;;2.28;2.17;;;;;;;1.68;100.00;100309.00;4916887;29;20068;-74
2022/01/11 08:54:18;;;;;;;4.03;3.72;;;;;;;1.72;99.38;100310.88;4916893;29;20032;-74
2022/01/11 08:56:44;;;;;;;3.72;3.53;;;;;;;1.72;99.31;100316.00;4916786;29;20040;-74
2022/01/11 08:59:10;;;;;;;2.17;2.08;;;;;;;1.76;99.25;100312.75;4916757;29;20051;-74
2022/01/11 09:01:35;;;;;;;6.68;4.82;;;;;;;1.64;98.87;100311.34;4916738;29;20035;-74
2022/01/11 09:04:01;;;;;;;4.78;3.28;;;;;;;1.69;99.29;100320.09;4916314;29;20072;-73
2022/01/11 09:06:27;;;;;;;3.50;3.20;;;;;;;1.85;98.99;100321.63;4916152;29;20107;-74
2022/01/11 09:08:52;;;;;;;2.47;2.38;;;;;;;1.99;98.65;100321.38;4908890;29;20180;-74
2022/01/11 09:11:18;;;;;;;3.47;3.13;;;;;;;2.01;97.98;100329.09;4916513;29;20103;-73
2022/01/11 09:13:44;;;;;;;4.78;3.67;;;;;;;2.14;96.95;100330.50;4916486;29;20039;-74
2022/01/11 09:16:11;;;;;;;4.07;3.15;;;;;;;2.20;96.86;100336.72;4916263;29;20046;-74
2022/01/11 09:18:37;;;;;;;4.75;2.67;;;;;;;2.12;97.02;100332.09;4916473;29;20553;-74
2022/01/11 09:21:03;;;;;;;5.97;3.85;;;;;;;2.10;96.80;100339.72;4916473;29;20027;-74
2022/01/11 09:23:31;;;;;;;3.20;2.15;;;;;;;2.05;96.79;100336.09;4916461;29;20119;-74
2022/01/11 09:25:57;;;;;;;1.98;1.88;;;;;;;2.10;97.11;100339.72;4916470;29;20034;-74
2022/01/11 09:28:23;;;;;;;7.05;3.50;;;;;;;1.97;96.96;100345.13;4916356;29;20489;-74
2022/01/11 09:30:50;;;;;;;6.97;4.40;;;;;;;2.00;97.39;100338.47;4916130;29;20028;-73
2022/01/11 09:33:16;;;;;;;4.65;3.70;;;;;;;2.19;96.05;100334.97;4916181;29;20028;-73
2022/01/11 09:35:42;;;;;;;3.35;3.00;;;;;;;1.89;97.18;100341.41;4915691;29;20027;-73
2022/01/11 09:38:07;;;;;;;3.20;2.95;;;;;;;2.19;96.56;100336.66;4908254;29;20027;-74
2022/01/11 09:40:33;;;;;;;3.65;3.33;;;;;;;2.46;96.68;100330.06;4916111;29;20442;-73
2022/01/11 09:42:58;;;;;;;3.50;2.33;;;;;;;2.31;95.48;100335.47;4916043;29;20035;-74
2022/01/11 09:45:23;;;;;;;4.10;2.90;;;;;;;2.34;94.91;100333.84;4915914;29;20051;-74
2022/01/11 09:47:49;;;;;;;4.20;3.50;;;;;;;2.18;95.35;100343.47;4916064;29;20446;-74
2022/01/11 09:50:16;;;;;;;3.13;2.63;;;;;;;2.35;95.38;100333.03;4916019;29;20389;-74
2022/01/11 09:52:41;;;;;;;4.93;4.53;;;;;;;2.46;95.79;100334.31;4915781;29;20510;-74
2022/01/11 09:55:09;;;;;;;2.22;2.13;;;;;;;2.62;94.01;100331.56;4915966;29;20035;-73
2022/01/11 09:57:35;;;;;;;7.75;4.97;;;;;;;2.52;93.78;100334.59;4915575;29;20485;-74
2022/01/11 10:00:01;;;;;;;3.40;2.83;;;;;;;2.77;93.04;100337.28;4915848;29;20047;-74
2022/01/11 10:02:26;;;;;;;6.28;4.50;;;;;;;2.75;92.79;100333.75;4915756;29;20024;-74
2022/01/11 10:05:01;;;;;;;4.70;4.00;;;;;;;2.76;92.67;100330.41;4915787;29;20040;-74
2022/01/11 10:07:33;;;;;;;3.92;2.70;;;;;;;2.65;92.98;100336.78;4910098;29;20146;-73
2022/01/11 10:09:58;;;;;;;2.92;2.17;;;;;;;3.02;92.83;100333.06;4914144;29;20028;-74
2022/01/11 10:12:24;;;;;;;3.63;2.75;;;;;;;3.27;92.14;100330.59;4915597;29;20550;-74
2022/01/11 10:14:56;;;;;;;4.30;2.85;;;;;;;3.15;90.14;100340.41;4916488;29;20036;-74
2022/01/11 10:17:24;;;;;;;3.63;2.85;;;;;;;3.40;89.98;100338.72;4919301;29;20043;-74
2022/01/11 10:20:09;;;;;;;6.80;4.63;;;;;;;3.75;88.45;100329.72;4919729;29;20107;-74
2022/01/11 10:22:35;;;;;;;4.50;3.63;;;;;;;3.61;88.51;100339.47;4918961;29;20186;-74
2022/01/11 10:25:02;;;;;;;3.47;2.85;;;;;;;3.41;88.12;100333.66;4938551;29;20032;-74
2022/01/11 10:27:34;;;;;;;5.70;4.78;;;;;;;3.67;87.78;100326.88;4938258;29;20063;-74
2022/01/11 10:30:11;;;;;;;11.85;4.63;;;;;;;3.82;86.45;100327.44;4937323;29;20024;-74
2022/01/11 10:32:40;;;;;;;2.50;2.28;;;;;;;4.06;85.31;100321.34;4938356;29;20115;-73
2022/01/11 10:35:11;;;;;;;9.10;3.90;;;;;;;3.82;85.72;100327.44;4938173;29;20066;-74
2022/01/11 10:37:44;;;;;;;6.15;3.42;;;;;;;3.90;85.79;100329.34;4937888;29;20027;-73
2022/01/11 10:40:20;;;;;;;3.85;3.55;;;;;;;3.86;85.56;100329.25;4938345;29;20035;-74
2022/01/11 10:42:56;;;;;;;5.95;3.90;;;;;;;4.21;84.25;100326.13;4938257;29;20098;-74
2022/01/11 10:45:21;;;;;;;4.50;2.95;;;;;;;3.77;85.55;100328.97;4938019;29;20055;-74
2022/01/11 10:47:50;;;;;;;3.47;3.10;;;;;;;4.01;85.13;100317.75;4937836;29;20055;-74
2022/01/11 10:50:22;;;;;;;7.73;4.47;;;;;;;4.07;84.76;100312.84;4937944;29;20027;-74
2022/01/11 10:52:48;;;;;;;3.78;2.97;;;;;;;4.37;84.55;100323.22;4938127;29;20034;-74
2022/01/11 10:55:19;;;;;;;8.32;3.15;;;;;;;4.37;82.29;100311.25;4938029;29;20107;-74
2022/01/11 10:57:50;;;;;;;9.23;3.28;;;;;;;4.23;82.75;100317.66;4937819;29;20027;-74
2022/01/11 11:00:20;;;;;;;4.20;3.63;;;;;;;4.37;83.64;100318.97;4937935;29;20027;-74
2022/01/11 11:02:50;;;;;;;2.70;2.58;;;;;;;4.97;82.56;100318.22;4938120;29;20056;-74
2022/01/11 11:05:23;;;;;;;4.35;3.95;;;;;;;5.58;79.20;100311.34;4937724;29;20031;-74
2022/01/11 11:08:07;;;;;;;3.28;2.03;;;;;;;6.16;76.01;100320.59;4937576;29;20102;-74
2022/01/11 11:10:55;;;;;;;5.18;3.47;;;;;;;6.61;74.96;100314.78;4937733;29;20047;-74
2022/01/11 11:13:35;;;;;;;5.35;3.00;;;;;;;6.27;73.26;100313.13;4937691;29;20032;-74
2022/01/11 11:16:11;;;;;;;4.95;3.92;;;;;;;6.50;72.73;100305.97;4937450;29;20038;-74
2022/01/11 11:18:48;;;;;;;7.15;3.60;;;;;;;6.59;71.88;100313.91;4937881;29;20481;-74
2022/01/11 11:21:27;;;;;;;4.63;2.88;;;;;;;6.53;70.75;100318.91;4937481;29;20042;-75
2022/01/11 11:24:02;;;;;;;2.25;2.05;;;;;;;6.12;72.15;100317.06;4937571;29;20095;-74
2022/01/11 11:26:51;;;;;;;2.33;2.13;;;;;;;6.57;69.93;100310.41;4936564;29;20035;-74
2022/01/11 11:29:19;;;;;;;4.03;2.95;;;;;;;5.61;71.30;100309.75;4938002;29;20032;-76
2022/01/11 11:31:44;;;;;;;1.92;1.73;;;;;;;5.71;71.04;100315.13;4937059;29;20024;-76
2022/01/11 11:34:12;;;;;;;2.50;2.20;;;;;;;5.40;69.47;100307.44;4937264;29;20019;-76
2022/01/11 11:36:41;;;;;;;4.95;2.17;;;;;;;5.44;68.65;100310.13;4936785;29;20031;-76
2022/01/11 11:39:25;;;;;;;2.23;2.13;;;;;;;5.29;72.98;100320.84;4937262;29;20031;-76
2022/01/11 11:41:53;;;;;;;2.60;2.42;;;;;;;5.53;73.71;100318.06;4937132;29;20749;-76
2022/01/11 11:44:24;;;;;;;7.63;2.67;;;;;;;5.50;73.89;100318.84;4937115;29;20110;-76
2022/01/11 11:47:02;;;;;;;2.67;2.25;;;;;;;5.48;74.85;100317.09;4936842;29;20111;-76
2022/01/11 11:49:46;;;;;;;2.95;2.72;;;;;;;5.32;73.56;100318.38;4937072;29;20031;-76
2022/01/11 11:52:27;;;;;;;3.63;2.28;;;;;;;4.94;74.63;100327.53;4936908;29;20035;-77
2022/01/11 11:54:57;;;;;;;2.05;1.95;;;;;;;4.87;76.40;100331.59;4937262;29;20023;-76
2022/01/11 11:57:25;;;;;;;2.50;1.85;;;;;;;5.02;76.08;100315.78;4936575;29;20039;-76
2022/01/11 11:59:56;;;;;;;2.03;1.73;;;;;;;4.74;75.82;100325.25;4935642;29;20492;-76
2022/01/11 12:02:38;;;;;;;2.75;2.45;;;;;;;4.84;75.78;100321.25;4936754;29;20031;-76
2022/01/11 12:05:06;;;;;;;1.20;1.20;;;;;;;5.68;70.53;100308.19;4936579;29;20027;-76
2022/01/11 12:07:38;;;;;;;2.90;2.30;;;;;;;6.79;63.16;100299.75;4936403;29;20126;-76
2022/01/11 12:10:07;;;;;;;3.38;2.65;;;;;;;6.64;67.11;100307.16;4936697;29;20366;-76
2022/01/11 12:12:42;;;;;;;3.17;1.55;;;;;;;6.11;65.57;100304.19;4936592;29;20024;-76
2022/01/11 12:15:34;;;;;;;1.38;1.25;;;;;;;5.77;67.27;100300.72;4936674;29;20042;-76
2022/01/11 12:17:59;;;;;;;3.20;2.75;;;;;;;5.51;67.60;100305.19;4936448;29;20043;-76
2022/01/11 12:20:47;;;;;;;0.90;0.90;;;;;;;4.99;63.74;100306.31;4936607;29;20032;-76
2022/01/11 12:23:22;;;;;;;0.50;0.50;;;;;;;5.01;64.25;100303.75;4936384;29;20505;-76
2022/01/11 12:25:53;;;;;;;1.00;1.00;;;;;;;4.85;63.93;100298.19;4936132;29;20118;-76
2022/01/11 12:28:22;;;;;;;1.05;0.98;;;;;;;4.68;64.33;100304.50;4936368;29;20034;-76
2022/01/11 12:30:48;;;;;;;1.00;0.93;;;;;;;4.63;63.12;100295.78;4936537;29;20035;-76
2022/01/11 12:33:18;;;;;;;0.70;0.70;;;;;;;4.46;63.08;100297.00;4936162;29;20035;-76
2022/01/11 12:36:00;;;;;;;0.88;0.88;;;;;;;4.50;64.81;100298.84;4935765;29;20023;-76
2022/01/11 12:38:28;;;;;;;1.25;1.20;;;;;;;4.52;66.73;100297.16;4935589;29;20031;-76
2022/01/11 12:40:53;;;;;;;1.23;1.23;;;;;;;4.63;67.51;100291.53;4936139;29;20024;-76
2022/01/11 12:43:42;;;;;;;0.80;0.80;;;;;;;4.41;63.09;100289.16;4936010;29;20035;-76
2022/01/11 12:46:12;;;;;;;0.50;0.50;;;;;;;4.53;61.72;100286.06;4935854;29;20042;-76
2022/01/11 12:48:48;;;;;;;;;;;;;;;4.37;62.13;100290.75;4936269;29;20504;-76
2022/01/11 12:51:20;;;;;;;0.88;0.88;;;;;;;4.34;62.94;100295.75;4936212;29;20291;-75
2022/01/11 12:53:45;;;;;;;1.08;0.77;;;;;;;4.41;63.65;100296.84;4935786;29;20465;-76
2022/01/11 12:56:11;;;;;;;0.75;0.75;;;;;;;4.44;63.96;100293.47;4935688;29;20102;-76
2022/01/11 12:58:36;;;;;;;2.17;1.23;;;;;;;4.35;63.53;100289.84;4935879;29;20504;-76
2022/01/11 13:01:17;;;;;;;0.93;0.93;;;;;;;4.34;63.18;100292.31;4935677;29;20119;-76
2022/01/11 13:03:51;;;;;;;2.35;2.25;;;;;;;4.38;63.75;100279.66;4935704;29;20388;-76
2022/01/11 13:06:18;;;;;;;1.13;1.13;;;;;;;4.42;63.59;100290.00;4927776;29;20106;-76
2022/01/11 13:08:45;;;;;;;1.27;0.73;;;;;;;4.58;63.10;100284.50;4935546;29;20035;-76
2022/01/11 13:11:18;;;;;;;0.70;0.70;;;;;;;4.62;63.80;100288.91;4935607;29;20035;-76
2022/01/11 13:13:53;;;;;;;1.35;1.27;;;;;;;4.63;62.78;100286.41;4935438;29;20399;-76
2022/01/11 13:16:30;;;;;;;1.00;0.98;;;;;;;4.59;62.39;100283.69;4935085;29;20043;-75
2022/01/11 13:19:08;;;;;;;0.80;0.80;;;;;;;4.54;63.59;100290.38;4935597;29;20027;-76
2022/01/11 13:21:33;;;;;;;0.60;0.60;;;;;;;4.56;63.51;100288.75;4935442;29;20050;-76
2022/01/11 13:24:11;;;;;;;0.70;0.70;;;;;;;4.52;62.78;100287.78;4935344;29;20024;-76
2022/01/11 13:26:37;;;;;;;1.35;1.25;;;;;;;4.33;63.69;100285.47;4935065;29;20446;-76
2022/01/11 13:29:03;;;;;;;0.60;0.60;;;;;;;4.44;64.23;100291.78;4935471;29;20039;-76
2022/01/11 13:31:30;;;;;;;0.77;0.77;;;;;;;4.46;64.69;100291.84;4935223;29;20030;-76
2022/01/11 13:34:00;;;;;;;1.10;1.10;;;;;;;4.43;65.31;100291.75;4935102;29;20028;-76
2022/01/11 13:36:29;;;;;;;0.90;0.90;;;;;;;4.28;63.52;100295.56;4934744;29;20027;-76
2022/01/11 13:38:57;;;;;;;2.20;1.13;;;;;;;4.20;64.58;100304.72;4934919;29;20034;-76
2022/01/11 13:41:38;;;;;;;1.08;1.08;;;;;;;4.22;64.71;100308.22;4935061;29;20037;-76
2022/01/11 13:44:06;;;;;;;2.47;1.42;;;;;;;4.18;65.17;100305.50;4935199;29;20024;-76
2022/01/11 13:46:41;;;;;;;4.30;1.15;;;;;;;4.19;64.96;100314.94;4934764;29;20174;-75
2022/01/11 13:49:13;;;;;;;0.75;0.75;;;;;;;4.12;64.09;100307.06;4934856;29;20110;-76
2022/01/11 13:51:38;;;;;;;1.30;1.30;;;;;;;4.08;62.35;100315.47;4934936;29;20028;-76
2022/01/11 13:54:06;;;;;;;0.95;0.90;;;;;;;4.01;62.45;100308.41;4935127;29;20370;-75
2022/01/11 13:56:35;;;;;;;1.17;1.10;;;;;;;4.02;63.54;100309.28;4934570;29;20508;-75
2022/01/11 13:59:02;;;;;;;1.38;1.30;;;;;;;4.00;63.72;100318.59;4934898;29;20110;-76
2022/01/11 14:01:28;;;;;;;1.38;1.27;;;;;;;3.99;63.34;100309.16;4934795;29;20035;-76
2022/01/11 14:04:18;;;;;;;0.95;0.90;;;;;;;3.99;63.15;100314.28;4934624;29;20031;-75
2022/01/11 14:06:48;;;;;;;0.95;0.95;;;;;;;3.81;62.53;100317.97;4934292;29;20499;-76
2022/01/11 14:09:23;;;;;;;1.45;1.35;;;;;;;3.88;63.22;100315.63;4934878;29;20090;-75
2022/01/11 14:12:08;;;;;;;1.02;1.02;;;;;;;3.79;62.87;100311.94;4934662;29;20107;-75
2022/01/11 14:14:35;;;;;;;1.23;0.90;;;;;;;3.84;63.34;100315.50;4934747;29;20028;-76
2022/01/11 14:17:18;;;;;;;1.65;1.08;;;;;;;3.87;63.72;100309.63;4934341;29;20449;-75
2022/01/11 14:20:05;;;;;;;2.47;1.48;;;;;;;3.83;63.97;100315.47;4934677;29;20028;-75
2022/01/11 14:22:41;;;;;;;1.70;1.45;;;;;;;3.97;63.82;100316.81;4934261;29;20039;-76
2022/01/11 14:25:18;;;;;;;1.23;1.20;;;;;;;3.84;64.34;100310.38;4934684;29;20485;-76
2022/01/11 14:27:43;;;;;;;2.30;1.50;;;;;;;3.82;64.34;100319.72;4934390;29;20039;-76
2022/01/11 14:30:16;;;;;;;0.90;0.90;;;;;;;3.82;64.20;100313.72;4934675;29;20043;-76
2022/01/11 14:32:54;;;;;;;0.80;0.80;;;;;;;3.77;64.58;100308.44;4934455;29;20482;-76
2022/01/11 14:35:24;;;;;;;0.80;0.80;;;;;;;3.66;64.70;100314.88;4934414;29;20030;-76
2022/01/11 14:38:02;;;;;;;2.00;0.88;;;;;;;3.69;65.02;100309.88;4934099;29;20074;-76
2022/01/11 14:40:29;;;;;;;1.25;1.02;;;;;;;3.73;65.32;100319.41;4934613;29;20032;-76
2022/01/11 14:43:17;;;;;;;1.20;1.13;;;;;;;3.72;64.74;100320.22;4934476;29;20028;-75
2022/01/11 14:45:48;;;;;;;1.25;1.15;;;;;;;3.71;65.07;100317.59;4934347;29;20556;-75
2022/01/11 14:48:27;;;;;;;1.70;1.60;;;;;;;3.70;65.16;100321.88;4934501;29;20031;-76
2022/01/11 14:50:52;;;;;;;1.27;1.17;;;;;;;3.61;65.01;100321.53;4934475;29;20040;-75
2022/01/11 14:53:18;;;;;;;1.65;1.17;;;;;;;3.63;65.74;100319.91;4934402;29;20059;-76
2022/01/11 14:55:57;;;;;;;1.95;1.85;;;;;;;3.69;66.43;100317.56;4934091;29;20385;-76
2022/01/11 14:58:35;;;;;;;0.93;0.93;;;;;;;3.69;66.01;100321.81;4934553;29;20040;-76
2022/01/11 15:01:04;;;;;;;2.05;1.67;;;;;;;3.69;66.50;100317.56;4935354;29;20355;-76
2022/01/11 15:03:39;;;;;;;1.15;1.13;;;;;;;3.60;66.64;100314.69;4937977;29;20119;-76
2022/01/11 15:06:08;;;;;;;1.73;1.58;;;;;;;3.69;66.13;100320.13;4936117;29;20039;-76
2022/01/11 15:08:36;;;;;;;1.63;1.52;;;;;;;3.56;66.47;100310.25;4937957;29;20532;-77
2022/01/11 15:11:20;;;;;;;0.60;0.60;;;;;;;3.64;66.08;100310.53;4937661;29;20055;-76
2022/01/11 15:13:55;;;;;;;1.17;1.17;;;;;;;3.52;65.86;100310.97;4937673;29;20107;-76
2022/01/11 15:16:25;;;;;;;1.35;1.23;;;;;;;3.57;65.98;100319.69;4952026;28;20031;-72
2022/01/11 15:18:51;;;;;;;1.70;1.23;;;;;;;3.51;66.02;100311.78;4936294;29;20153;-76
2022/01/11 15:21:19;;;;;;;1.15;1.15;;;;;;;3.47;66.89;100320.19;4936423;29;20039;-77
2022/01/11 15:23:46;;;;;;;3.63;0.80;;;;;;;3.47;66.27;100318.50;4937603;29;20054;-76
2022/01/11 15:26:11;;;;;;;2.03;1.60;;;;;;;3.38;66.68;100327.53;4936991;29;20042;-77
2022/01/11 15:28:37;;;;;;;2.22;1.27;;;;;;;3.34;66.44;100332.56;4937325;29;20024;-76
2022/01/11 15:31:02;;;;;;;0.82;0.82;;;;;;;3.27;67.11;100333.16;4937193;29;20087;-76
2022/01/11 15:33:28;;;;;;;1.17;0.77;;;;;;;3.29;66.52;100328.97;4937070;29;20028;-77
2022/01/11 15:35:53;;;;;;;1.02;1.02;;;;;;;3.31;66.93;100342.69;4936652;29;20027;-76
2022/01/11 15:38:18;;;;;;;0.70;0.70;;;;;;;3.40;67.15;100347.28;4936999;29;20441;-76
2022/01/11 15:40:45;;;;;;;0.93;0.93;;;;;;;3.34;66.36;100344.50;4937100;29;20027;-76
2022/01/11 15:43:10;;;;;;;1.42;1.33;;;;;;;3.23;66.29;100354.34;4937389;29;20031;-77
2022/01/11 15:45:35;;;;;;;1.35;1.25;;;;;;;3.27;67.54;100356.22;4937446;29;20103;-76
2022/01/11 15:48:01;;;;;;;1.77;1.58;;;;;;;3.17;66.56;100353.25;4936700;29;20477;-76
2022/01/11 15:50:26;;;;;;;0.77;0.77;;;;;;;3.30;66.85;100358.88;4936945;29;20036;-76
2022/01/11 15:52:52;;;;;;;0.80;0.80;;;;;;;3.16;67.09;100362.63;4936695;29;20035;-76
2022/01/11 15:55:19;;;;;;;0.60;0.60;;;;;;;3.22;67.05;100359.41;4936910;28;20136;-76